EWG9RZ EDLP-LEPA
Flight info
| Callsign | EWG9RZ |
|---|---|
| Flight time | N/A |
| Altitude | 35000 |
| Route | GISDI1X GISDI Y13 ALEXU N850 GISEM DCT BOMBI DCT GIGET DCT ABUKA/N0455F360 DCT KRH DCT NATOR/N0456F350 DCT LUTIX DCT BENOT DCT NEMOS DCT GEVEA DCT INCUS DCT BALSI/N0456F370 DCT RETNO DCT TUPOX DCT MTG DCT DIVKO DCT VATIR N852 VERSO L129 LUNIK |
| Aircraft | A320/M-SDE3FGHIRWY/LB1 |
Departure
| Time | N/A |
|---|---|
| Airport | Paderborn Lippstadt Airport (EDLP) |
Arrival
| Time | 2026-05-06 15:16 |
|---|---|
| Airport | Palma de Mallorca Airport (LEPA) |
| Time | Latitude | Longitude | Altitude | Speed | Heading |
|---|---|---|---|---|---|
| 2026-05-06 14:03 | 45.40437 | 6.10717 | 35915 ft | 413 kts | 201° |
| 2026-05-06 14:03 | 45.37720 | 6.09413 | 35923 ft | 413 kts | 201° |
| 2026-05-06 14:03 | 45.32276 | 6.06814 | 35923 ft | 412 kts | 201° |
| 2026-05-06 14:04 | 45.26842 | 6.04218 | 35920 ft | 412 kts | 201° |
| 2026-05-06 14:04 | 45.21407 | 6.01618 | 35910 ft | 412 kts | 201° |
| 2026-05-06 14:05 | 45.15985 | 5.99025 | 35921 ft | 411 kts | 201° |
| 2026-05-06 14:05 | 45.10560 | 5.96440 | 35925 ft | 411 kts | 201° |
| 2026-05-06 14:06 | 45.05138 | 5.93863 | 35919 ft | 411 kts | 201° |
| 2026-05-06 14:06 | 44.99758 | 5.91321 | 35903 ft | 410 kts | 201° |
| 2026-05-06 14:07 | 44.94345 | 5.88762 | 35909 ft | 410 kts | 201° |
| 2026-05-06 14:07 | 44.88941 | 5.86203 | 35914 ft | 409 kts | 200° |
| 2026-05-06 14:08 | 44.83543 | 5.83651 | 35898 ft | 408 kts | 201° |
| 2026-05-06 14:08 | 44.78155 | 5.81111 | 35918 ft | 408 kts | 201° |
| 2026-05-06 14:09 | 44.72772 | 5.78578 | 35921 ft | 408 kts | 201° |
| 2026-05-06 14:09 | 44.67397 | 5.76061 | 35919 ft | 407 kts | 201° |
| 2026-05-06 14:10 | 44.62019 | 5.73544 | 35917 ft | 407 kts | 201° |
| 2026-05-06 14:10 | 44.56646 | 5.71033 | 35937 ft | 407 kts | 201° |
| 2026-05-06 14:11 | 44.51253 | 5.68515 | 35909 ft | 408 kts | 201° |
| 2026-05-06 14:11 | 44.45889 | 5.66024 | 35886 ft | 409 kts | 201° |
| 2026-05-06 14:12 | 44.40475 | 5.63520 | 35894 ft | 410 kts | 201° |
| 2026-05-06 14:12 | 44.35077 | 5.60915 | 35898 ft | 409 kts | 204° |
| 2026-05-06 14:13 | 44.29787 | 5.57986 | 35899 ft | 409 kts | 205° |
| 2026-05-06 14:13 | 44.24513 | 5.54981 | 35897 ft | 409 kts | 205° |
| 2026-05-06 14:14 | 44.20112 | 5.52537 | 35906 ft | 409 kts | 204° |
| 2026-05-06 14:14 | 44.14814 | 5.49663 | 35907 ft | 409 kts | 204° |
| 2026-05-06 14:15 | 44.09508 | 5.46790 | 35896 ft | 409 kts | 204° |
| 2026-05-06 14:15 | 44.04257 | 5.43811 | 35904 ft | 407 kts | 206° |
| 2026-05-06 14:16 | 43.99093 | 5.40625 | 35911 ft | 406 kts | 207° |
| 2026-05-06 14:16 | 43.93934 | 5.37403 | 35915 ft | 406 kts | 207° |
| 2026-05-06 14:17 | 43.88767 | 5.34231 | 35910 ft | 406 kts | 207° |
| 2026-05-06 14:17 | 43.83628 | 5.31116 | 35942 ft | 405 kts | 207° |
| 2026-05-06 14:18 | 43.78458 | 5.27987 | 35925 ft | 405 kts | 207° |
| 2026-05-06 14:18 | 43.73291 | 5.24863 | 35923 ft | 405 kts | 207° |
| 2026-05-06 14:19 | 43.68120 | 5.21741 | 35922 ft | 405 kts | 207° |
| 2026-05-06 14:19 | 43.62963 | 5.18627 | 35920 ft | 404 kts | 207° |
| 2026-05-06 14:20 | 43.57804 | 5.15517 | 35926 ft | 404 kts | 207° |
| 2026-05-06 14:20 | 43.52662 | 5.12420 | 35931 ft | 403 kts | 207° |
| 2026-05-06 14:21 | 43.47514 | 5.09339 | 35917 ft | 403 kts | 207° |
| 2026-05-06 14:21 | 43.42369 | 5.06266 | 35927 ft | 403 kts | 207° |
| 2026-05-06 14:22 | 43.37223 | 5.03185 | 35929 ft | 402 kts | 207° |
| 2026-05-06 14:22 | 43.32090 | 5.00124 | 35905 ft | 402 kts | 207° |
| 2026-05-06 14:23 | 43.26962 | 4.97075 | 35920 ft | 401 kts | 207° |
| 2026-05-06 14:23 | 43.21842 | 4.94029 | 35951 ft | 401 kts | 207° |
| 2026-05-06 14:24 | 43.16723 | 4.90983 | 35942 ft | 402 kts | 207° |
| 2026-05-06 14:24 | 43.11614 | 4.87958 | 35915 ft | 402 kts | 207° |
| 2026-05-06 14:25 | 43.06487 | 4.84937 | 35928 ft | 402 kts | 207° |
| 2026-05-06 14:25 | 43.01354 | 4.81909 | 35930 ft | 402 kts | 207° |
| 2026-05-06 14:26 | 42.96214 | 4.78878 | 35939 ft | 402 kts | 207° |
| 2026-05-06 14:26 | 42.91078 | 4.75857 | 35932 ft | 402 kts | 207° |
| 2026-05-06 14:27 | 42.85943 | 4.72840 | 35943 ft | 401 kts | 207° |
| 2026-05-06 14:27 | 42.80813 | 4.69840 | 35948 ft | 401 kts | 207° |
| 2026-05-06 14:28 | 42.75680 | 4.66845 | 35951 ft | 401 kts | 207° |
| 2026-05-06 14:28 | 42.70551 | 4.63851 | 35951 ft | 401 kts | 207° |
| 2026-05-06 14:29 | 42.65432 | 4.60870 | 35948 ft | 401 kts | 207° |
| 2026-05-06 14:29 | 42.60312 | 4.57890 | 35950 ft | 400 kts | 207° |
| 2026-05-06 14:30 | 42.55185 | 4.54906 | 35960 ft | 401 kts | 207° |
| 2026-05-06 14:30 | 42.50046 | 4.51933 | 35933 ft | 401 kts | 207° |
| 2026-05-06 14:31 | 42.44910 | 4.48973 | 35940 ft | 401 kts | 207° |
| 2026-05-06 14:31 | 42.39807 | 4.46018 | 35947 ft | 401 kts | 207° |
| 2026-05-06 14:32 | 42.34673 | 4.43050 | 35950 ft | 401 kts | 207° |
| 2026-05-06 14:32 | 42.29535 | 4.40100 | 35942 ft | 401 kts | 207° |
| 2026-05-06 14:33 | 42.24384 | 4.37197 | 35954 ft | 401 kts | 206° |
| 2026-05-06 14:33 | 42.19235 | 4.34331 | 35962 ft | 400 kts | 206° |
| 2026-05-06 14:34 | 42.14084 | 4.31462 | 35977 ft | 400 kts | 206° |
| 2026-05-06 14:34 | 42.08939 | 4.28593 | 35951 ft | 400 kts | 207° |
| 2026-05-06 14:35 | 42.03806 | 4.25719 | 35965 ft | 400 kts | 207° |
| 2026-05-06 14:35 | 41.98661 | 4.22851 | 35971 ft | 399 kts | 206° |
| 2026-05-06 14:36 | 41.93526 | 4.20014 | 35975 ft | 399 kts | 206° |
| 2026-05-06 14:36 | 41.88393 | 4.17184 | 35957 ft | 399 kts | 207° |
| 2026-05-06 14:37 | 41.83251 | 4.14341 | 35957 ft | 400 kts | 207° |
| 2026-05-06 14:37 | 41.78112 | 4.11502 | 35958 ft | 400 kts | 207° |
| 2026-05-06 14:38 | 41.72954 | 4.08675 | 35965 ft | 400 kts | 206° |
| 2026-05-06 14:38 | 41.67795 | 4.05850 | 35950 ft | 400 kts | 207° |
| 2026-05-06 14:39 | 41.62638 | 4.03021 | 35961 ft | 400 kts | 207° |
| 2026-05-06 14:39 | 41.57515 | 4.00219 | 35966 ft | 400 kts | 207° |
| 2026-05-06 14:40 | 41.52356 | 3.97403 | 35964 ft | 400 kts | 207° |
| 2026-05-06 14:40 | 41.47205 | 3.94592 | 35938 ft | 400 kts | 207° |
| 2026-05-06 14:41 | 41.42052 | 3.91794 | 35951 ft | 400 kts | 207° |
| 2026-05-06 14:41 | 41.36897 | 3.88990 | 35961 ft | 400 kts | 207° |
| 2026-05-06 14:42 | 41.31741 | 3.86183 | 35968 ft | 400 kts | 207° |
| 2026-05-06 14:42 | 41.26579 | 3.83382 | 35953 ft | 400 kts | 207° |
| 2026-05-06 14:43 | 41.21426 | 3.80602 | 35974 ft | 400 kts | 207° |
| 2026-05-06 14:43 | 41.16299 | 3.77839 | 35975 ft | 400 kts | 207° |
| 2026-05-06 14:44 | 41.11106 | 3.75032 | 35974 ft | 401 kts | 207° |
| 2026-05-06 14:45 | 41.03361 | 3.70856 | 35941 ft | 400 kts | 207° |
| 2026-05-06 14:45 | 40.98201 | 3.68092 | 35948 ft | 400 kts | 207° |
| 2026-05-06 14:46 | 40.93071 | 3.65347 | 35950 ft | 400 kts | 207° |
| 2026-05-06 14:46 | 40.87915 | 3.62589 | 35952 ft | 399 kts | 207° |
| 2026-05-06 14:47 | 40.82757 | 3.59830 | 35932 ft | 399 kts | 207° |
| 2026-05-06 14:47 | 40.77605 | 3.57082 | 35934 ft | 399 kts | 207° |
| 2026-05-06 14:48 | 40.72450 | 3.54336 | 35940 ft | 399 kts | 207° |
| 2026-05-06 14:48 | 40.67292 | 3.51598 | 35947 ft | 400 kts | 207° |
| 2026-05-06 14:49 | 40.62135 | 3.48862 | 35939 ft | 399 kts | 207° |
| 2026-05-06 14:49 | 40.56974 | 3.46127 | 35947 ft | 399 kts | 207° |
| 2026-05-06 14:50 | 40.51814 | 3.43399 | 35871 ft | 401 kts | 207° |
| 2026-05-06 14:50 | 40.49229 | 3.42035 | 35615 ft | 400 kts | 207° |
| 2026-05-06 14:50 | 40.46646 | 3.40683 | 35303 ft | 400 kts | 205° |
| 2026-05-06 14:50 | 40.43935 | 3.39715 | 34506 ft | 409 kts | 196° |
| 2026-05-06 14:51 | 40.41057 | 3.39398 | 33504 ft | 421 kts | 186° |
| 2026-05-06 14:51 | 40.38109 | 3.39550 | 32480 ft | 426 kts | 185° |
| 2026-05-06 14:51 | 40.35135 | 3.39723 | 31406 ft | 430 kts | 184° |
| 2026-05-06 14:51 | 40.32137 | 3.39892 | 30397 ft | 432 kts | 184° |
| 2026-05-06 14:52 | 40.29111 | 3.40064 | 29241 ft | 436 kts | 184° |
| 2026-05-06 14:52 | 40.26111 | 3.40243 | 28621 ft | 428 kts | 184° |
| 2026-05-06 14:52 | 40.23157 | 3.40423 | 27894 ft | 423 kts | 184° |
| 2026-05-06 14:52 | 40.20233 | 3.40598 | 27161 ft | 418 kts | 184° |
| 2026-05-06 14:53 | 40.17343 | 3.40765 | 26513 ft | 413 kts | 183° |
| 2026-05-06 14:53 | 40.14513 | 3.40925 | 25842 ft | 410 kts | 183° |
| 2026-05-06 14:53 | 40.11631 | 3.41083 | 25166 ft | 408 kts | 183° |
| 2026-05-06 14:53 | 40.08846 | 3.41234 | 24519 ft | 405 kts | 183° |
| 2026-05-06 14:54 | 40.05998 | 3.41391 | 23846 ft | 403 kts | 183° |
| 2026-05-06 14:54 | 40.03240 | 3.41547 | 23163 ft | 401 kts | 183° |
| 2026-05-06 14:54 | 40.00466 | 3.41708 | 22525 ft | 397 kts | 183° |
| 2026-05-06 14:54 | 39.97689 | 3.41868 | 21931 ft | 392 kts | 182° |
| 2026-05-06 14:55 | 39.95007 | 3.42017 | 21396 ft | 388 kts | 182° |
| 2026-05-06 14:55 | 39.92285 | 3.42169 | 20861 ft | 384 kts | 182° |
| 2026-05-06 14:55 | 39.89658 | 3.42315 | 20348 ft | 381 kts | 182° |
| 2026-05-06 14:55 | 39.86983 | 3.42467 | 19836 ft | 378 kts | 182° |
| 2026-05-06 14:56 | 39.84399 | 3.42614 | 19343 ft | 376 kts | 182° |
| 2026-05-06 14:56 | 39.81797 | 3.42766 | 18851 ft | 373 kts | 182° |
| 2026-05-06 14:56 | 39.79210 | 3.42920 | 18417 ft | 369 kts | 182° |
| 2026-05-06 14:56 | 39.76693 | 3.43073 | 18300 ft | 356 kts | 182° |
| 2026-05-06 14:57 | 39.74280 | 3.43025 | 18152 ft | 338 kts | 192° |
| 2026-05-06 14:57 | 39.72064 | 3.42288 | 17996 ft | 321 kts | 205° |
| 2026-05-06 14:57 | 39.70125 | 3.40954 | 17652 ft | 312 kts | 218° |
| 2026-05-06 14:57 | 39.68511 | 3.39122 | 17238 ft | 307 kts | 230° |
| 2026-05-06 14:58 | 39.67641 | 3.37684 | 16957 ft | 305 kts | 238° |
| 2026-05-06 14:58 | 39.66631 | 3.35285 | 16534 ft | 303 kts | 244° |
| 2026-05-06 14:58 | 39.65693 | 3.32835 | 16129 ft | 302 kts | 244° |
| 2026-05-06 14:58 | 39.64756 | 3.30405 | 15736 ft | 301 kts | 244° |
| 2026-05-06 14:59 | 39.63819 | 3.27985 | 15356 ft | 300 kts | 244° |
| 2026-05-06 14:59 | 39.62887 | 3.25574 | 15059 ft | 299 kts | 244° |
| 2026-05-06 14:59 | 39.61963 | 3.23190 | 14905 ft | 292 kts | 244° |
| 2026-05-06 14:59 | 39.61062 | 3.20872 | 14785 ft | 283 kts | 244° |
| 2026-05-06 15:00 | 39.60193 | 3.18625 | 14613 ft | 276 kts | 244° |
| 2026-05-06 15:00 | 39.59337 | 3.16412 | 14339 ft | 273 kts | 244° |
| 2026-05-06 15:00 | 39.58484 | 3.14213 | 14028 ft | 272 kts | 244° |
| 2026-05-06 15:00 | 39.57635 | 3.12023 | 13712 ft | 271 kts | 244° |
| 2026-05-06 15:01 | 39.56787 | 3.09842 | 13357 ft | 270 kts | 244° |
| 2026-05-06 15:01 | 39.55941 | 3.07670 | 12992 ft | 270 kts | 244° |
| 2026-05-06 15:01 | 39.55101 | 3.05501 | 12701 ft | 267 kts | 244° |
| 2026-05-06 15:01 | 39.54284 | 3.03386 | 12567 ft | 258 kts | 244° |
| 2026-05-06 15:02 | 39.53489 | 3.01343 | 12403 ft | 251 kts | 244° |
| 2026-05-06 15:02 | 39.52709 | 2.99342 | 12143 ft | 248 kts | 244° |
| 2026-05-06 15:02 | 39.51930 | 2.97350 | 11828 ft | 247 kts | 244° |
| 2026-05-06 15:02 | 39.51166 | 2.95392 | 11515 ft | 247 kts | 244° |
| 2026-05-06 15:03 | 39.50382 | 2.93392 | 11197 ft | 246 kts | 244° |
| 2026-05-06 15:03 | 39.49613 | 2.91439 | 10892 ft | 246 kts | 243° |
| 2026-05-06 15:03 | 39.48806 | 2.89493 | 10566 ft | 245 kts | 242° |
| 2026-05-06 15:03 | 39.47987 | 2.87564 | 10255 ft | 245 kts | 242° |
| 2026-05-06 15:04 | 39.47165 | 2.85636 | 9948 ft | 244 kts | 242° |
| 2026-05-06 15:04 | 39.46342 | 2.83711 | 9645 ft | 244 kts | 242° |
| 2026-05-06 15:04 | 39.45519 | 2.81789 | 9289 ft | 243 kts | 242° |
| 2026-05-06 15:04 | 39.44702 | 2.79873 | 8962 ft | 243 kts | 242° |
| 2026-05-06 15:05 | 39.43891 | 2.77966 | 8657 ft | 242 kts | 242° |
| 2026-05-06 15:05 | 39.43083 | 2.76062 | 8305 ft | 241 kts | 242° |
| 2026-05-06 15:05 | 39.42278 | 2.74159 | 7986 ft | 241 kts | 242° |
| 2026-05-06 15:05 | 39.41480 | 2.72265 | 7625 ft | 240 kts | 242° |
| 2026-05-06 15:06 | 39.40682 | 2.70368 | 7264 ft | 239 kts | 242° |
| 2026-05-06 15:06 | 39.39892 | 2.68485 | 6900 ft | 239 kts | 242° |
| 2026-05-06 15:06 | 39.39102 | 2.66597 | 6547 ft | 238 kts | 242° |
| 2026-05-06 15:06 | 39.38322 | 2.64722 | 6196 ft | 237 kts | 242° |
| 2026-05-06 15:07 | 39.37543 | 2.62840 | 5826 ft | 236 kts | 242° |
| 2026-05-06 15:07 | 39.36769 | 2.60973 | 5457 ft | 235 kts | 242° |
| 2026-05-06 15:07 | 39.35999 | 2.59112 | 5091 ft | 235 kts | 242° |
| 2026-05-06 15:07 | 39.35231 | 2.57243 | 4724 ft | 236 kts | 242° |
| 2026-05-06 15:08 | 39.34462 | 2.55365 | 4348 ft | 236 kts | 242° |
| 2026-05-06 15:08 | 39.33701 | 2.53495 | 4042 ft | 233 kts | 242° |
| 2026-05-06 15:08 | 39.32945 | 2.51635 | 3996 ft | 235 kts | 242° |
| 2026-05-06 15:08 | 39.32184 | 2.49760 | 4004 ft | 237 kts | 242° |
| 2026-05-06 15:09 | 39.31421 | 2.47861 | 3999 ft | 239 kts | 243° |
| 2026-05-06 15:09 | 39.31008 | 2.45815 | 3996 ft | 238 kts | 272° |
| 2026-05-06 15:09 | 39.31479 | 2.43803 | 3999 ft | 237 kts | 305° |
| 2026-05-06 15:09 | 39.32699 | 2.42430 | 3997 ft | 235 kts | 338° |
| 2026-05-06 15:10 | 39.34286 | 2.42088 | 4004 ft | 233 kts | 8° |
| 2026-05-06 15:10 | 39.35798 | 2.42762 | 3755 ft | 230 kts | 29° |
| 2026-05-06 15:10 | 39.37187 | 2.43792 | 3398 ft | 230 kts | 32° |
| 2026-05-06 15:10 | 39.38537 | 2.44850 | 3093 ft | 229 kts | 32° |
| 2026-05-06 15:11 | 39.39907 | 2.45927 | 2993 ft | 226 kts | 32° |
| 2026-05-06 15:11 | 39.41185 | 2.46935 | 3000 ft | 213 kts | 32° |
| 2026-05-06 15:11 | 39.42437 | 2.47925 | 3002 ft | 210 kts | 32° |
| 2026-05-06 15:11 | 39.43682 | 2.48906 | 3003 ft | 209 kts | 32° |
| 2026-05-06 15:12 | 39.44765 | 2.50129 | 3005 ft | 207 kts | 57° |
| 2026-05-06 15:12 | 39.45528 | 2.51714 | 3010 ft | 208 kts | 59° |
| 2026-05-06 15:12 | 39.46284 | 2.53316 | 3006 ft | 208 kts | 59° |
| 2026-05-06 15:12 | 39.47040 | 2.54908 | 2881 ft | 206 kts | 59° |
| 2026-05-06 15:13 | 39.47779 | 2.56461 | 2601 ft | 198 kts | 59° |
| 2026-05-06 15:13 | 39.48489 | 2.57953 | 2353 ft | 192 kts | 59° |
| 2026-05-06 15:13 | 39.49179 | 2.59405 | 2103 ft | 186 kts | 59° |
| 2026-05-06 15:13 | 39.49847 | 2.60809 | 1857 ft | 179 kts | 59° |
| 2026-05-06 15:14 | 39.50474 | 2.62131 | 1644 ft | 169 kts | 59° |
| 2026-05-06 15:14 | 39.51078 | 2.63401 | 1415 ft | 159 kts | 59° |
| 2026-05-06 15:14 | 39.51634 | 2.64573 | 1197 ft | 146 kts | 59° |
| 2026-05-06 15:14 | 39.52162 | 2.65665 | 992 ft | 141 kts | 59° |
| 2026-05-06 15:15 | 39.52668 | 2.66729 | 828 ft | 138 kts | 58° |
| 2026-05-06 15:15 | 39.53169 | 2.67766 | 673 ft | 133 kts | 59° |
| 2026-05-06 15:15 | 39.53651 | 2.68793 | 476 ft | 134 kts | 58° |
| 2026-05-06 15:15 | 39.54127 | 2.69810 | 304 ft | 131 kts | 59° |
| 2026-05-06 15:16 | 39.54586 | 2.70793 | 126 ft | 129 kts | 58° |
| 2026-05-06 15:16 | 39.55038 | 2.71758 | 41 ft | 115 kts | 59° |
| 2026-05-06 15:16 | 39.55385 | 2.72481 | 38 ft | 70 kts | 59° |
| 2026-05-06 15:16 | 39.55494 | 2.72799 | 38 ft | 20 kts | 83° |
| 2026-05-06 15:17 | 39.55498 | 2.72963 | 38 ft | 8 kts | 88° |
| 2026-05-06 15:17 | 39.55500 | 2.73046 | 38 ft | 10 kts | 88° |
| 2026-05-06 15:17 | 39.55503 | 2.73148 | 38 ft | 12 kts | 83° |
| 2026-05-06 15:17 | 39.55542 | 2.73257 | 38 ft | 14 kts | 59° |
| 2026-05-06 15:18 | 39.55596 | 2.73377 | 38 ft | 16 kts | 59° |
| 2026-05-06 15:18 | 39.55602 | 2.73513 | 37 ft | 18 kts | 138° |
| 2026-05-06 15:18 | 39.55494 | 2.73602 | 38 ft | 20 kts | 148° |
| 2026-05-06 15:18 | 39.55373 | 2.73694 | 38 ft | 20 kts | 148° |
| 2026-05-06 15:19 | 39.55251 | 2.73789 | 38 ft | 21 kts | 148° |
| 2026-05-06 15:19 | 39.55127 | 2.73889 | 38 ft | 21 kts | 149° |
| 2026-05-06 15:19 | 39.54999 | 2.73989 | 38 ft | 22 kts | 148° |
| 2026-05-06 15:19 | 39.54873 | 2.74088 | 37 ft | 15 kts | 149° |
| 2026-05-06 15:20 | 39.54778 | 2.74096 | 37 ft | 15 kts | 222° |
| 2026-05-06 15:20 | 39.54724 | 2.73990 | 38 ft | 14 kts | 238° |
| 2026-05-06 15:20 | 39.54675 | 2.73889 | 38 ft | 13 kts | 237° |
| 2026-05-06 15:20 | 39.54630 | 2.73794 | 38 ft | 12 kts | 239° |
| 2026-05-06 15:21 | 39.54589 | 2.73697 | 38 ft | 13 kts | 249° |
| 2026-05-06 15:21 | 39.54617 | 2.73634 | 38 ft | 7 kts | 341° |
| 2026-05-06 15:21 | 39.54671 | 2.73607 | 37 ft | 11 kts | 335° |
| 2026-05-06 15:21 | 39.54741 | 2.73554 | 37 ft | 11 kts | 328° |
| 2026-05-06 15:22 | 39.54790 | 2.73519 | 38 ft | 6 kts | 344° |
| 2026-05-06 15:22 | 39.54821 | 2.73543 | 38 ft | 5 kts | 54° |
| 2026-05-06 15:22 | 39.54828 | 2.73558 | 38 ft | 1 kts | 58° |
| 2026-05-06 15:22 | 39.54831 | 2.73564 | 38 ft | 1 kts | 58° |
| 2026-05-06 15:23 | 39.54832 | 2.73565 | 38 ft | 0 kts | 58° |